createdAt,value
2017-11-01T00:00:49.713Z,83.20
2017-11-01T00:03:17.290Z,82.80
2017-11-01T00:05:44.828Z,83.20
2017-11-01T00:08:12.661Z,82.90
2017-11-01T00:10:41.489Z,82.70
2017-11-01T00:13:09.024Z,82.70
2017-11-01T00:15:36.615Z,83.20
2017-11-01T00:18:04.167Z,83.40
2017-11-01T00:20:31.946Z,83.50
2017-11-01T00:22:59.486Z,83.40
2017-11-01T00:25:27.011Z,82.80
2017-11-01T00:27:54.662Z,82.80
2017-11-01T00:30:22.197Z,83.50
2017-11-01T00:32:49.782Z,83.30
2017-11-01T00:35:17.404Z,83.00
2017-11-01T00:37:44.948Z,83.20
2017-11-01T00:40:12.717Z,83.50
2017-11-01T00:42:40.325Z,83.50
2017-11-01T00:45:08.683Z,83.30
2017-11-01T00:47:36.230Z,83.20
2017-11-01T00:50:03.775Z,83.90
2017-11-01T00:52:31.342Z,83.20
2017-11-01T00:54:58.958Z,82.80
2017-11-01T00:57:26.560Z,83.40
2017-11-01T00:59:54.102Z,82.80
2017-11-01T01:02:21.993Z,82.80
2017-11-01T01:04:49.561Z,82.80
2017-11-01T01:07:17.117Z,83.40
2017-11-01T01:09:45.666Z,83.20
2017-11-01T01:12:13.207Z,82.70
2017-11-01T01:14:40.898Z,82.70
2017-11-01T01:17:08.481Z,83.40
2017-11-01T01:19:36.017Z,83.30
2017-11-01T01:22:03.612Z,83.20
2017-11-01T01:24:31.968Z,83.30
2017-11-01T01:26:59.508Z,83.40
2017-11-01T01:29:27.083Z,83.10
2017-11-01T01:31:54.590Z,83.30
2017-11-01T01:34:22.935Z,82.60
2017-11-01T01:36:50.463Z,82.60
2017-11-01T01:39:18.023Z,82.60
2017-11-01T01:41:45.603Z,83.10
2017-11-01T01:44:13.145Z,82.80
2017-11-01T01:46:40.795Z,82.70
2017-11-01T01:49:08.340Z,83.30
2017-11-01T01:51:35.885Z,83.10
2017-11-01T01:54:04.229Z,83.00
2017-11-01T01:56:31.783Z,83.00
2017-11-01T01:58:59.367Z,82.70
2017-11-01T02:01:26.915Z,82.70
2017-11-01T02:03:54.569Z,82.60
2017-11-01T02:06:22.194Z,82.70
2017-11-01T02:08:49.696Z,82.70
2017-11-01T02:11:17.270Z,82.60
2017-11-01T02:13:46.401Z,82.70
2017-11-01T02:16:13.967Z,82.70
2017-11-01T02:18:41.533Z,82.80
2017-11-01T02:21:09.083Z,83.50
2017-11-01T02:23:36.662Z,82.70
2017-11-01T02:26:04.197Z,82.70
2017-11-01T02:28:31.739Z,82.70
2017-11-01T02:30:59.316Z,83.70
2017-11-01T02:33:26.850Z,83.10
2017-11-01T02:35:54.554Z,83.00
2017-11-01T02:38:22.092Z,82.70
2017-11-01T02:40:49.642Z,82.70
2017-11-01T02:43:17.218Z,82.70
2017-11-01T02:45:44.761Z,82.70
2017-11-01T02:48:12.344Z,82.70
2017-11-01T02:50:39.891Z,82.70
2017-11-01T02:53:07.415Z,82.70
2017-11-01T02:55:35.750Z,82.90
2017-11-01T02:58:03.293Z,82.70
2017-11-01T03:00:30.887Z,82.80
2017-11-01T03:02:58.422Z,82.80
2017-11-01T03:05:26.100Z,82.70
2017-11-01T03:07:53.699Z,82.80
2017-11-01T03:10:21.239Z,82.80
2017-11-01T03:12:48.826Z,82.80
2017-11-01T03:15:16.368Z,82.80
2017-11-01T03:17:44.680Z,82.80
2017-11-01T03:20:12.255Z,82.80
2017-11-01T03:22:40.286Z,82.80
2017-11-01T03:25:07.887Z,82.80
2017-11-01T03:27:35.414Z,82.80
2017-11-01T03:30:03.085Z,82.80
2017-11-01T03:32:30.670Z,82.80
2017-11-01T03:34:58.235Z,82.80
2017-11-01T03:37:25.904Z,82.80
2017-11-01T03:39:53.448Z,82.80
2017-11-01T03:42:20.994Z,82.70
2017-11-01T03:44:48.569Z,82.80
2017-11-01T03:47:16.107Z,82.80
2017-11-01T03:49:43.696Z,82.80
2017-11-01T03:52:11.816Z,82.80
2017-11-01T03:54:39.355Z,82.70
2017-11-01T03:57:07.005Z,82.80
2017-11-01T03:59:34.553Z,82.50
2017-11-01T04:02:02.225Z,82.90
2017-11-01T04:04:29.864Z,82.90
2017-11-01T04:06:57.404Z,82.80
2017-11-01T04:09:24.998Z,82.80
2017-11-01T04:11:52.538Z,82.30
2017-11-01T04:14:20.190Z,82.80
2017-11-01T04:16:47.746Z,82.80
2017-11-01T04:19:21.122Z,82.90
2017-11-01T04:21:49.641Z,82.80
2017-11-01T04:24:17.196Z,82.80
2017-11-01T04:26:44.769Z,82.80
2017-11-01T04:29:12.311Z,82.80
2017-11-01T04:31:39.885Z,82.80
2017-11-01T04:34:07.418Z,82.80
2017-11-01T04:36:40.749Z,82.80
2017-11-01T04:39:08.313Z,82.80
2017-11-01T04:41:35.871Z,83.20
2017-11-01T04:44:03.438Z,83.40
2017-11-01T04:46:30.972Z,84.00
2017-11-01T04:48:58.552Z,84.00
2017-11-01T04:51:26.082Z,84.00
2017-11-01T04:53:54.347Z,84.00
2017-11-01T04:56:24.826Z,84.10
2017-11-01T04:58:53.105Z,84.70
2017-11-01T05:01:20.714Z,84.70
2017-11-01T05:03:48.244Z,85.20
2017-11-01T05:06:19.310Z,85.50
2017-11-01T05:08:49.717Z,85.50
2017-11-01T05:11:18.151Z,85.80
2017-11-01T05:13:45.742Z,86.80
2017-11-01T05:16:15.176Z,86.80
2017-11-01T05:18:42.727Z,86.80
2017-11-01T05:21:10.318Z,87.00
2017-11-01T05:23:37.871Z,87.70
2017-11-01T05:26:07.215Z,87.80
2017-11-01T05:28:35.522Z,88.20
2017-11-01T05:31:03.065Z,88.20
2017-11-01T05:33:30.633Z,88.20
2017-11-01T05:35:58.169Z,88.00
2017-11-01T05:38:25.964Z,88.10
2017-11-01T05:40:53.512Z,88.10
2017-11-01T05:43:21.037Z,88.00
2017-11-01T05:45:48.636Z,88.30
2017-11-01T05:48:16.195Z,88.40
2017-11-01T05:50:44.203Z,88.60
2017-11-01T05:53:11.741Z,88.60
2017-11-01T05:55:39.300Z,88.60
2017-11-01T05:58:08.614Z,88.80
2017-11-01T06:00:36.155Z,88.60
2017-11-01T06:03:03.738Z,89.20
2017-11-01T06:05:31.275Z,88.60
2017-11-01T06:07:58.819Z,88.30
2017-11-01T06:10:26.415Z,88.00
2017-11-01T06:12:53.949Z,88.30
2017-11-01T06:15:21.535Z,88.40
2017-11-01T06:17:49.060Z,88.30
2017-11-01T06:20:16.607Z,88.30
2017-11-01T06:22:44.957Z,88.30
2017-11-01T06:25:14.009Z,88.60
2017-11-01T06:27:41.598Z,88.50
2017-11-01T06:30:09.169Z,88.30
2017-11-01T06:32:36.745Z,88.20
2017-11-01T06:35:05.081Z,88.80
2017-11-01T06:37:32.716Z,88.20
2017-11-01T06:40:00.301Z,88.20
2017-11-01T06:42:27.845Z,88.30
2017-11-01T06:44:55.393Z,88.10
2017-11-01T06:47:22.961Z,88.30
2017-11-01T06:49:50.510Z,88.40
2017-11-01T06:52:18.110Z,88.60
2017-11-01T06:54:45.644Z,88.80
2017-11-01T06:57:13.201Z,88.90
2017-11-01T06:59:40.795Z,88.60
2017-11-01T07:02:08.344Z,88.80
2017-11-01T07:04:35.987Z,88.80
2017-11-01T07:07:03.532Z,88.90
2017-11-01T07:09:45.952Z,89.00
2017-11-01T07:12:13.507Z,88.90
2017-11-01T07:14:41.047Z,88.70
2017-11-01T07:17:08.622Z,88.90
2017-11-01T07:19:36.181Z,89.00
2017-11-01T07:22:03.790Z,89.40
2017-11-01T07:24:31.334Z,89.40
2017-11-01T07:26:58.893Z,89.40
2017-11-01T07:29:26.493Z,89.80
2017-11-01T07:31:54.797Z,90.20
2017-11-01T07:34:22.409Z,90.20
2017-11-01T07:36:49.983Z,90.20
2017-11-01T07:39:17.561Z,90.30
2017-11-01T07:41:45.912Z,90.20
2017-11-01T07:44:13.464Z,90.20
2017-11-01T07:46:41.078Z,90.50
2017-11-01T07:49:08.947Z,90.40
2017-11-01T07:51:36.673Z,90.10
2017-11-01T07:54:05.013Z,90.20
2017-11-01T07:56:32.573Z,90.20
2017-11-01T07:59:00.156Z,90.00
2017-11-01T08:01:27.715Z,90.00
2017-11-01T08:03:56.083Z,90.00
2017-11-01T08:06:23.628Z,90.00
2017-11-01T08:08:51.227Z,90.00
2017-11-01T08:11:18.792Z,90.00
2017-11-01T08:13:47.601Z,89.70
2017-11-01T08:16:15.929Z,89.70
2017-11-01T08:18:43.463Z,89.70
2017-11-01T08:21:11.078Z,89.60
2017-11-01T08:23:39.388Z,89.70
2017-11-01T08:26:06.978Z,89.70
2017-11-01T08:28:34.707Z,89.60
2017-11-01T08:31:02.270Z,89.60
2017-11-01T08:33:29.853Z,89.70
2017-11-01T08:35:57.442Z,89.60
2017-11-01T08:38:25.833Z,89.80
2017-11-01T08:40:53.378Z,90.00
2017-11-01T08:43:22.044Z,90.40
2017-11-01T08:45:49.591Z,90.20
2017-11-01T08:48:17.140Z,90.00
2017-11-01T08:50:44.739Z,90.10
2017-11-01T08:53:12.281Z,90.10
2017-11-01T08:55:39.861Z,90.10
2017-11-01T08:58:07.416Z,90.10
2017-11-01T09:00:34.945Z,89.80
2017-11-01T09:03:02.767Z,89.90
2017-11-01T09:05:30.332Z,89.90
2017-11-01T09:07:58.059Z,90.10
2017-11-01T09:10:28.502Z,90.00
2017-11-01T09:12:56.049Z,90.00
2017-11-01T09:15:23.889Z,89.70
2017-11-01T09:17:51.424Z,90.00
2017-11-01T09:20:18.997Z,89.90
2017-11-01T09:22:46.643Z,89.90
2017-11-01T09:25:14.178Z,89.80
2017-11-01T09:27:41.765Z,90.00
2017-11-01T09:30:11.797Z,90.10
2017-11-01T09:32:39.636Z,90.10
2017-11-01T09:35:07.187Z,90.10
2017-11-01T09:37:34.739Z,90.00
2017-11-01T09:40:02.346Z,90.10
2017-11-01T09:42:29.905Z,90.20
2017-11-01T09:44:57.482Z,90.10
2017-11-01T09:47:25.024Z,90.20
2017-11-01T09:49:52.576Z,90.20
2017-11-01T09:52:20.275Z,90.20
2017-11-01T09:54:48.595Z,90.30
2017-11-01T09:57:16.188Z,90.20
2017-11-01T09:59:43.736Z,90.20
2017-11-01T10:02:11.362Z,90.20
2017-11-01T10:04:38.959Z,89.80
2017-11-01T10:07:06.497Z,89.70
2017-11-01T10:09:34.083Z,89.70
2017-11-01T10:12:01.710Z,89.60
2017-11-01T10:14:29.350Z,89.70
2017-11-01T10:16:56.941Z,89.60
2017-11-01T10:19:24.485Z,89.40
2017-11-01T10:21:52.083Z,89.40
2017-11-01T10:24:19.665Z,89.40
2017-11-01T10:26:47.513Z,89.60
2017-11-01T10:29:15.082Z,89.50
2017-11-01T10:31:42.646Z,89.50
2017-11-01T10:34:10.262Z,89.40
2017-11-01T10:36:37.805Z,89.40
2017-11-01T10:39:05.430Z,89.40
2017-11-01T10:41:33.030Z,89.50
2017-11-01T10:44:00.873Z,89.30
2017-11-01T10:46:28.453Z,89.50
2017-11-01T10:48:56.002Z,89.40
2017-11-01T10:51:23.594Z,89.10
2017-11-01T10:53:51.157Z,89.00
2017-11-01T10:56:18.743Z,89.10
2017-11-01T10:58:47.226Z,89.20
2017-11-01T11:01:14.813Z,89.10
2017-11-01T11:03:43.441Z,89.00
2017-11-01T11:06:10.996Z,88.90
2017-11-01T11:08:38.598Z,89.20
2017-11-01T11:11:06.158Z,89.20
2017-11-01T11:13:33.771Z,89.10
2017-11-01T11:16:01.331Z,88.90
2017-11-01T11:18:28.879Z,88.80
2017-11-01T11:20:56.466Z,89.40
2017-11-01T11:23:24.001Z,88.70
2017-11-01T11:25:51.727Z,88.90
2017-11-01T11:28:19.285Z,88.80
2017-11-01T11:30:46.827Z,88.90
2017-11-01T11:33:14.433Z,89.10
2017-11-01T11:35:41.986Z,88.90
2017-11-01T11:38:09.593Z,89.20
2017-11-01T11:40:37.160Z,89.30
2017-11-01T11:43:04.720Z,89.30
2017-11-01T11:45:33.085Z,89.50
2017-11-01T11:48:00.633Z,89.50
2017-11-01T11:50:28.232Z,89.40
2017-11-01T11:52:55.764Z,89.80
2017-11-01T11:55:23.371Z,89.80
2017-11-01T11:57:51.697Z,89.70
2017-11-01T12:00:19.250Z,89.50
2017-11-01T12:02:46.849Z,89.60
2017-11-01T12:05:14.392Z,89.70
2017-11-01T12:07:41.984Z,89.60
2017-11-01T12:10:09.514Z,89.60
2017-11-01T12:12:37.114Z,89.70
2017-11-01T12:15:04.660Z,89.70
2017-11-01T12:17:32.973Z,89.40
2017-11-01T12:20:03.429Z,89.40
2017-11-01T12:22:30.977Z,89.50
2017-11-01T12:24:58.553Z,89.40
2017-11-01T12:27:26.172Z,89.30
2017-11-01T12:29:53.762Z,89.00
2017-11-01T12:32:21.374Z,88.80
2017-11-01T12:34:49.698Z,88.50
2017-11-01T12:37:17.372Z,88.50
2017-11-01T12:39:44.917Z,88.70
2017-11-01T12:42:12.512Z,88.70
2017-11-01T12:44:40.096Z,88.70
2017-11-01T12:47:08.798Z,88.60
2017-11-01T12:49:36.364Z,88.50
2017-11-01T12:52:03.926Z,88.60
2017-11-01T12:54:31.510Z,88.70
2017-11-01T12:56:59.061Z,88.80
2017-11-01T12:59:26.679Z,88.70
2017-11-01T13:01:55.040Z,88.90
2017-11-01T13:04:24.401Z,88.80
2017-11-01T13:06:51.968Z,88.70
2017-11-01T13:09:19.529Z,88.80
2017-11-01T13:11:47.124Z,88.80
2017-11-01T13:14:14.707Z,88.60
2017-11-01T13:16:42.379Z,88.80
2017-11-01T13:19:09.937Z,88.80
2017-11-01T13:21:37.567Z,88.70
2017-11-01T13:24:05.130Z,88.60
2017-11-01T13:26:33.687Z,88.80
2017-11-01T13:29:01.344Z,88.80
2017-11-01T13:31:28.902Z,88.80
2017-11-01T13:33:56.503Z,88.60
2017-11-01T13:36:24.071Z,88.70
2017-11-01T13:38:52.435Z,88.70
2017-11-01T13:41:19.995Z,88.70
2017-11-01T13:43:48.319Z,89.00
2017-11-01T13:46:15.907Z,89.00
2017-11-01T13:48:43.466Z,88.70
2017-11-01T13:51:11.067Z,88.80
2017-11-01T13:53:38.632Z,88.70
2017-11-01T13:56:06.453Z,89.00
2017-11-01T13:58:34.000Z,89.00
2017-11-01T14:01:01.538Z,88.90
2017-11-01T14:03:29.140Z,89.00
2017-11-01T14:05:56.682Z,89.20
2017-11-01T14:08:24.279Z,89.10
2017-11-01T14:10:52.657Z,89.30
2017-11-01T14:13:20.257Z,89.30
2017-11-01T14:15:47.825Z,89.30
2017-11-01T14:18:15.387Z,89.10
2017-11-01T14:20:42.996Z,89.10
2017-11-01T14:23:11.339Z,89.70
2017-11-01T14:25:38.950Z,89.10
2017-11-01T14:28:06.597Z,89.70
2017-11-01T14:30:35.043Z,89.10
2017-11-01T14:33:02.613Z,89.10
2017-11-01T14:35:31.682Z,89.10
2017-11-01T14:37:59.628Z,89.10
2017-11-01T14:40:27.370Z,88.90
2017-11-01T14:42:55.708Z,89.10
2017-11-01T14:45:23.334Z,89.10
2017-11-01T14:47:50.933Z,89.10
2017-11-01T14:50:18.817Z,89.00
2017-11-01T14:52:46.411Z,89.10
2017-11-01T14:55:13.965Z,89.10
2017-11-01T14:57:41.578Z,89.10
2017-11-01T15:00:09.275Z,89.20
2017-11-01T15:02:36.837Z,89.10
2017-11-01T15:05:05.219Z,89.30
2017-11-01T15:07:32.801Z,89.30
2017-11-01T15:10:00.670Z,89.30
2017-11-01T15:12:28.227Z,89.30
2017-11-01T15:14:55.787Z,89.30
2017-11-01T15:17:23.398Z,89.40
2017-11-01T15:19:50.941Z,89.60
2017-11-01T15:22:20.085Z,89.70
2017-11-01T15:24:47.642Z,89.70
2017-11-01T15:27:15.198Z,89.80
2017-11-01T15:29:42.810Z,89.60
2017-11-01T15:32:10.398Z,89.50
2017-11-01T15:34:38.716Z,89.20
2017-11-01T15:37:06.340Z,89.70
2017-11-01T15:39:35.587Z,89.90
2017-11-01T15:42:03.227Z,89.90
2017-11-01T15:44:30.795Z,90.00
2017-11-01T15:46:58.356Z,90.00
2017-11-01T15:49:25.957Z,90.00
2017-11-01T15:51:53.522Z,90.00
2017-11-01T15:54:21.126Z,90.00
2017-11-01T15:56:49.320Z,90.10
2017-11-01T15:59:16.919Z,90.10
2017-11-01T16:01:44.518Z,90.10
2017-11-01T16:04:12.096Z,90.10
2017-11-01T16:06:39.699Z,90.10
2017-11-01T16:09:07.279Z,90.10
2017-11-01T16:11:34.832Z,90.10
2017-11-01T16:14:03.235Z,90.10
2017-11-01T16:16:30.891Z,90.10
2017-11-01T16:18:58.486Z,90.20
2017-11-01T16:21:26.087Z,90.10
2017-11-01T16:23:54.441Z,90.00
2017-11-01T16:26:22.095Z,90.10
2017-11-01T16:28:49.666Z,90.10
2017-11-01T16:31:17.242Z,90.10
2017-11-01T16:33:44.842Z,90.10
2017-11-01T16:36:12.437Z,90.10
2017-11-01T16:38:40.086Z,90.00
2017-11-01T16:41:07.647Z,90.10
2017-11-01T16:43:35.221Z,90.20
2017-11-01T16:46:02.827Z,90.10
2017-11-01T16:48:30.375Z,90.10
2017-11-01T16:50:58.715Z,90.10
2017-11-01T16:53:26.363Z,90.10
2017-11-01T16:55:53.965Z,90.00
2017-11-01T16:58:22.357Z,90.10
2017-11-01T17:00:49.918Z,90.10
2017-11-01T17:03:18.304Z,90.10
2017-11-01T17:05:46.122Z,90.10
2017-11-01T17:08:13.682Z,90.10
2017-11-01T17:10:41.944Z,90.10
2017-11-01T17:13:09.515Z,90.00
2017-11-01T17:15:37.113Z,90.10
2017-11-01T17:18:05.502Z,90.00
2017-11-01T17:20:33.107Z,90.00
2017-11-01T17:23:00.868Z,89.90
2017-11-01T17:25:28.456Z,89.90
2017-11-01T17:27:56.176Z,89.80
2017-11-01T17:30:23.923Z,89.80
2017-11-01T17:32:52.263Z,89.90
2017-11-01T17:35:19.877Z,89.90
2017-11-01T17:37:47.440Z,89.90
2017-11-01T17:40:15.000Z,90.20
2017-11-01T17:42:42.623Z,90.00
2017-11-01T17:45:10.961Z,89.80
2017-11-01T17:47:38.531Z,89.80
2017-11-01T17:50:06.138Z,89.90
2017-11-01T17:52:33.751Z,90.10
2017-11-01T17:55:01.376Z,90.00
2017-11-01T17:57:28.963Z,90.00
2017-11-01T17:59:56.588Z,90.00
2017-11-01T18:02:24.219Z,90.00
2017-11-01T18:04:51.811Z,90.00
2017-11-01T18:09:53.953Z,90.30
2017-11-01T18:12:21.578Z,90.30
2017-11-01T18:14:49.214Z,90.20
2017-11-01T18:17:16.829Z,90.30
2017-11-01T18:19:44.385Z,90.20
2017-11-01T18:22:11.996Z,90.20
2017-11-01T18:24:39.591Z,90.20
2017-11-01T18:27:07.751Z,90.10
2017-11-01T18:29:35.439Z,90.20
2017-11-01T18:32:03.012Z,90.00
2017-11-01T18:34:31.440Z,90.00
2017-11-01T18:36:59.063Z,90.00
2017-11-01T18:39:26.695Z,90.10
2017-11-01T18:41:54.474Z,90.00
2017-11-01T18:44:22.049Z,90.00
2017-11-01T18:46:49.670Z,90.00
2017-11-01T18:49:17.234Z,90.00
2017-11-01T18:51:44.881Z,89.90
2017-11-01T18:54:12.466Z,89.70
2017-11-01T18:56:40.023Z,89.70
2017-11-01T18:59:07.647Z,89.60
2017-11-01T19:01:35.225Z,89.60
2017-11-01T19:04:02.850Z,89.70
2017-11-01T19:06:30.406Z,89.60
2017-11-01T19:08:57.987Z,89.60
2017-11-01T19:11:25.854Z,89.40
2017-11-01T19:13:53.416Z,89.40
2017-11-01T19:16:21.107Z,89.10
2017-11-01T19:18:48.804Z,89.30
2017-11-01T19:21:17.258Z,89.20
2017-11-01T19:23:44.818Z,89.70
2017-11-01T19:26:12.430Z,89.00
2017-11-01T19:28:40.042Z,89.00
2017-11-01T19:31:07.657Z,89.00
2017-11-01T19:33:35.290Z,89.00
2017-11-01T19:36:02.911Z,89.20
2017-11-01T19:38:30.503Z,89.30
2017-11-01T19:40:58.848Z,89.30
2017-11-01T19:43:26.541Z,89.20
2017-11-01T19:45:54.131Z,89.30
2017-11-01T19:48:22.132Z,89.30
2017-11-01T19:50:49.736Z,89.20
2017-11-01T19:53:17.575Z,89.50
2017-11-01T19:55:47.429Z,89.60
2017-11-01T19:58:15.169Z,89.50
2017-11-01T20:00:45.138Z,89.20
2017-11-01T20:03:14.721Z,89.20
2017-11-01T20:05:42.548Z,89.60
2017-11-01T20:08:10.103Z,89.40
2017-11-01T20:10:39.223Z,89.60
2017-11-01T20:13:06.792Z,89.60
2017-11-01T20:15:35.259Z,89.90
2017-11-01T20:18:03.733Z,89.40
2017-11-01T20:20:32.066Z,89.40
2017-11-01T20:22:59.706Z,89.30
2017-11-01T20:25:27.285Z,89.40
2017-11-01T20:27:54.952Z,89.30
2017-11-01T20:30:22.507Z,89.30
2017-11-01T20:32:50.080Z,89.70
2017-11-01T20:35:18.398Z,89.50
2017-11-01T20:37:46.732Z,89.60
2017-11-01T20:40:14.388Z,89.60
2017-11-01T20:42:41.993Z,89.30
2017-11-01T20:45:10.510Z,89.60
2017-11-01T20:47:38.106Z,89.00
2017-11-01T20:50:05.676Z,88.90
2017-11-01T20:52:33.458Z,89.00
2017-11-01T20:55:01.763Z,89.10
2017-11-01T20:57:29.397Z,89.00
2017-11-01T20:59:57.735Z,89.00
2017-11-01T21:02:25.361Z,89.00
2017-11-01T21:04:52.906Z,88.80
2017-11-01T21:07:20.497Z,88.90
2017-11-01T21:09:48.093Z,88.70
2017-11-01T21:12:15.634Z,88.80
2017-11-01T21:14:43.277Z,88.90
2017-11-01T21:17:10.846Z,88.90
2017-11-01T21:19:38.512Z,89.10
2017-11-01T21:22:06.158Z,89.00
2017-11-01T21:24:33.911Z,88.70
2017-11-01T21:27:01.502Z,88.80
2017-11-01T21:29:29.063Z,88.80
2017-11-01T21:31:56.656Z,89.00
2017-11-01T21:34:24.214Z,88.70
2017-11-01T21:36:51.803Z,88.90
2017-11-01T21:39:19.441Z,88.60
2017-11-01T21:41:47.758Z,88.50
2017-11-01T21:44:15.378Z,88.50
2017-11-01T21:46:43.762Z,89.00
2017-11-01T21:49:11.372Z,88.40
2017-11-01T21:51:38.922Z,88.40
2017-11-01T21:54:06.531Z,88.50
2017-11-01T21:56:34.084Z,88.40
2017-11-01T21:59:02.440Z,88.50
2017-11-01T22:01:30.026Z,88.50
2017-11-01T22:03:57.582Z,88.60
2017-11-01T22:06:25.209Z,88.60
2017-11-01T22:08:53.117Z,88.80
2017-11-01T22:11:20.672Z,88.90
2017-11-01T22:13:48.282Z,88.50
2017-11-01T22:16:16.062Z,88.40
2017-11-01T22:18:43.657Z,88.30
2017-11-01T22:21:11.205Z,88.30
2017-11-01T22:23:38.823Z,88.30
2017-11-01T22:26:06.385Z,88.30
2017-11-01T22:28:33.962Z,88.40
2017-11-01T22:31:01.601Z,88.60
2017-11-01T22:33:29.167Z,88.60
2017-11-01T22:35:56.782Z,88.40
2017-11-01T22:38:24.331Z,88.40
2017-11-01T22:40:52.078Z,88.00
2017-11-01T22:43:19.666Z,88.10
2017-11-01T22:45:47.475Z,88.50
2017-11-01T22:48:15.065Z,88.20
2017-11-01T22:50:42.615Z,88.40
2017-11-01T22:53:10.236Z,88.10
2017-11-01T22:55:37.776Z,88.50
2017-11-01T22:58:06.110Z,88.50
2017-11-01T23:00:33.714Z,88.50
2017-11-01T23:03:02.038Z,88.40
2017-11-01T23:05:29.610Z,88.20
2017-11-01T23:07:57.154Z,88.40
2017-11-01T23:10:24.773Z,88.50
2017-11-01T23:12:53.107Z,88.60
2017-11-01T23:15:20.655Z,88.60
2017-11-01T23:17:48.229Z,88.90
2017-11-01T23:20:15.779Z,88.70
2017-11-01T23:22:43.388Z,88.90
2017-11-01T23:25:10.946Z,88.80
2017-11-01T23:27:39.305Z,89.00
2017-11-01T23:30:06.829Z,88.40
2017-11-01T23:32:34.407Z,88.70
2017-11-01T23:35:02.043Z,88.70
2017-11-01T23:37:29.604Z,88.80
2017-11-01T23:39:57.194Z,88.70
2017-11-01T23:42:24.735Z,89.10
2017-11-01T23:44:52.404Z,89.40
2017-11-01T23:47:19.950Z,89.80
2017-11-01T23:49:47.508Z,90.00
2017-11-01T23:52:15.102Z,90.10
2017-11-01T23:54:44.145Z,90.70
2017-11-01T23:57:11.750Z,90.70
2017-11-01T23:59:39.514Z,90.70
